createdAt,value
2022-08-23T00:02:56.845Z,5.07
2022-08-23T00:08:02.198Z,5.03
2022-08-23T00:13:10.551Z,4.50
2022-08-23T00:18:16.747Z,5.50
2022-08-23T00:23:21.963Z,4.90
2022-08-23T00:28:29.825Z,5.27
2022-08-23T00:33:35.347Z,5.70
2022-08-23T00:38:43.555Z,6.47
2022-08-23T00:44:03.993Z,6.57
2022-08-23T00:49:14.587Z,6.87
2022-08-23T00:54:23.307Z,6.87
2022-08-23T00:59:32.362Z,7.30
2022-08-23T01:04:44.673Z,7.23
2022-08-23T01:09:52.953Z,8.17
2022-08-23T01:15:06.796Z,7.83
2022-08-23T01:20:18.844Z,8.33
2022-08-23T01:25:32.135Z,8.00
2022-08-23T01:30:39.145Z,10.20
2022-08-23T01:35:47.674Z,10.57
2022-08-23T01:40:56.096Z,9.83
2022-08-23T01:46:01.154Z,9.70
2022-08-23T01:51:06.828Z,10.50
2022-08-23T01:56:27.616Z,9.37
2022-08-23T02:01:47.511Z,9.33
2022-08-23T02:06:54.239Z,10.20
2022-08-23T02:12:17.943Z,10.80
2022-08-23T02:17:25.473Z,8.83
2022-08-23T02:22:30.434Z,8.50
2022-08-23T02:27:44.193Z,7.97
2022-08-23T02:32:51.252Z,6.63
2022-08-23T02:37:59.553Z,6.57
2022-08-23T02:43:08.728Z,6.90
2022-08-23T02:48:14.596Z,6.33
2022-08-23T02:53:29.481Z,7.83
2022-08-23T02:58:40.188Z,5.90
2022-08-23T03:03:55.328Z,5.70
2022-08-23T03:09:01.022Z,6.83
2022-08-23T03:14:10.900Z,6.90
2022-08-23T03:19:15.946Z,6.60
2022-08-23T03:24:21.136Z,7.13
2022-08-23T03:29:29.526Z,6.70
2022-08-23T03:34:40.196Z,7.20
2022-08-23T03:39:48.770Z,7.13
2022-08-23T03:45:02.400Z,7.77
2022-08-23T03:50:11.565Z,7.37
2022-08-23T03:55:21.973Z,7.10
2022-08-23T04:00:35.799Z,8.00
2022-08-23T04:05:40.837Z,7.53
2022-08-23T04:10:53.067Z,7.53
2022-08-23T04:16:05.201Z,8.03
2022-08-23T04:21:14.692Z,6.90
2022-08-23T04:26:20.003Z,7.57
2022-08-23T04:31:34.474Z,7.03
2022-08-23T04:36:55.280Z,7.27
2022-08-23T04:42:15.029Z,9.80
2022-08-23T04:47:24.013Z,8.53
2022-08-23T04:52:32.929Z,6.60
2022-08-23T04:57:38.554Z,8.17
2022-08-23T05:02:48.404Z,7.57
2022-08-23T05:07:53.351Z,9.73
2022-08-23T05:13:00.073Z,8.47
2022-08-23T05:18:07.988Z,9.60
2022-08-23T05:23:16.001Z,9.70
2022-08-23T05:28:33.542Z,10.30
2022-08-23T05:33:47.815Z,9.93
2022-08-23T05:38:59.315Z,10.93
2022-08-23T05:44:05.034Z,11.77
2022-08-23T05:49:20.931Z,11.43
2022-08-23T05:54:27.093Z,14.30
2022-08-23T05:59:51.319Z,13.77
2022-08-23T06:04:59.507Z,13.53
2022-08-23T06:10:08.087Z,13.13
2022-08-23T06:15:24.525Z,14.47
2022-08-23T06:20:33.755Z,13.70
2022-08-23T06:25:42.267Z,14.63
2022-08-23T06:30:57.325Z,15.73
2022-08-23T06:36:11.147Z,15.80
2022-08-23T06:41:33.929Z,15.93
2022-08-23T06:47:08.389Z,17.47
2022-08-23T06:52:16.253Z,17.20
2022-08-23T06:57:53.443Z,17.17
2022-08-23T07:03:04.895Z,17.77
2022-08-23T07:08:33.238Z,19.40
2022-08-23T07:13:40.718Z,20.30
2022-08-23T07:18:46.079Z,20.40
2022-08-23T07:23:57.663Z,20.33
2022-08-23T07:29:02.869Z,18.93
2022-08-23T07:34:09.907Z,17.93
2022-08-23T07:39:22.819Z,18.63
2022-08-23T07:44:34.344Z,17.67
2022-08-23T07:49:39.700Z,17.33
2022-08-23T07:54:49.879Z,16.47
2022-08-23T08:00:15.047Z,18.03
2022-08-23T08:05:30.086Z,17.60
2022-08-23T08:10:41.272Z,19.43
2022-08-23T08:15:48.362Z,18.73
2022-08-23T08:20:55.862Z,17.30
2022-08-23T08:26:23.320Z,18.70
2022-08-23T08:31:36.492Z,19.17
2022-08-23T08:36:46.775Z,19.70
2022-08-23T08:42:23.478Z,20.10
2022-08-23T08:47:38.146Z,18.17
2022-08-23T08:52:50.710Z,19.43
2022-08-23T08:58:20.389Z,19.30
2022-08-23T09:03:27.044Z,16.97
2022-08-23T09:08:45.682Z,16.93
2022-08-23T09:14:19.015Z,18.40
2022-08-23T09:19:26.692Z,17.40
2022-08-23T09:24:35.384Z,16.13
2022-08-23T09:30:01.993Z,15.73
2022-08-23T09:35:11.765Z,15.43
2022-08-23T09:40:28.446Z,16.20
2022-08-23T09:45:42.179Z,14.53
2022-08-23T09:50:54.790Z,13.47
2022-08-23T09:56:12.905Z,14.53
2022-08-23T10:01:24.580Z,13.17
2022-08-23T10:06:42.107Z,13.20
2022-08-23T10:11:52.053Z,13.17
2022-08-23T10:17:11.528Z,13.47
2022-08-23T10:22:22.797Z,12.70
2022-08-23T10:28:14.762Z,13.33
2022-08-23T10:33:36.009Z,13.27
2022-08-23T10:38:49.765Z,10.60
2022-08-23T10:44:06.320Z,11.60
2022-08-23T10:49:18.029Z,12.30
2022-08-23T10:54:35.528Z,11.67
2022-08-23T10:59:48.377Z,11.57
2022-08-23T11:05:06.613Z,13.10
2022-08-23T11:10:19.067Z,12.13
2022-08-23T11:15:44.704Z,11.17
2022-08-23T11:21:05.016Z,10.57
2022-08-23T11:27:07.712Z,11.17
2022-08-23T11:32:35.310Z,10.80
2022-08-23T11:38:00.442Z,10.70
2022-08-23T11:43:29.204Z,9.67
2022-08-23T11:48:43.399Z,10.27
2022-08-23T11:54:30.578Z,9.97
2022-08-23T12:00:05.279Z,9.90
2022-08-23T12:05:35.230Z,10.00
2022-08-23T12:11:07.441Z,11.03
2022-08-23T12:16:32.405Z,10.37
2022-08-23T12:21:47.858Z,10.10
2022-08-23T12:27:02.587Z,8.80
2022-08-23T12:32:18.310Z,9.37
2022-08-23T12:37:31.445Z,8.60
2022-08-23T12:42:39.423Z,9.23
2022-08-23T12:48:01.011Z,8.23
2022-08-23T12:53:10.382Z,8.90
2022-08-23T12:58:17.353Z,9.00
2022-08-23T13:03:30.120Z,8.87
2022-08-23T13:08:41.505Z,10.20
2022-08-23T13:13:47.700Z,10.50
2022-08-23T13:18:56.298Z,9.30
2022-08-23T13:24:03.404Z,9.20
2022-08-23T13:29:13.374Z,9.60
2022-08-23T13:34:40.520Z,10.03
2022-08-23T13:39:57.283Z,8.40
2022-08-23T13:45:11.875Z,9.47
2022-08-23T13:50:25.821Z,8.50
2022-08-23T13:55:32.444Z,8.37
2022-08-23T14:00:37.482Z,7.40
2022-08-23T14:05:44.989Z,7.97
2022-08-23T14:10:50.603Z,8.13
2022-08-23T14:15:58.858Z,8.30
2022-08-23T14:21:23.782Z,8.77
2022-08-23T14:26:29.810Z,7.60
2022-08-23T14:31:35.137Z,6.13
2022-08-23T14:38:00.275Z,6.80
2022-08-23T14:42:09.833Z,7.00
2022-08-23T14:47:16.610Z,6.10
2022-08-23T14:52:24.828Z,6.40
2022-08-23T14:57:29.811Z,6.03
2022-08-23T15:02:36.571Z,5.90
2022-08-23T15:07:44.367Z,6.50
2022-08-23T15:12:58.284Z,5.40
2022-08-23T15:18:09.584Z,6.00
2022-08-23T15:23:17.572Z,5.97
2022-08-23T15:28:25.069Z,6.17
2022-08-23T15:33:30.827Z,6.40
2022-08-23T15:38:39.715Z,5.87
2022-08-23T15:43:45.146Z,5.70
2022-08-23T15:48:53.706Z,5.77
2022-08-23T15:54:01.605Z,6.00
2022-08-23T15:59:07.403Z,5.63
2022-08-23T16:04:14.969Z,4.90
2022-08-23T16:09:25.861Z,6.10
2022-08-23T16:14:32.514Z,5.73
2022-08-23T16:19:37.604Z,6.30
2022-08-23T16:24:45.155Z,5.80
2022-08-23T16:29:51.142Z,5.10
2022-08-23T16:34:56.355Z,6.17
2022-08-23T16:40:03.945Z,5.40
2022-08-23T16:45:15.631Z,5.43
2022-08-23T16:50:20.644Z,5.43
2022-08-23T16:55:28.439Z,6.27
2022-08-23T17:00:33.699Z,6.07
2022-08-23T17:05:39.016Z,6.13
2022-08-23T17:10:48.803Z,6.33
2022-08-23T17:15:54.147Z,5.90
2022-08-23T17:21:01.058Z,6.23
2022-08-23T17:26:09.462Z,5.50
2022-08-23T17:31:14.846Z,5.93
2022-08-23T17:36:33.915Z,4.83
2022-08-23T17:41:45.339Z,5.67
2022-08-23T17:46:51.537Z,5.77
2022-08-23T17:51:57.922Z,5.60
2022-08-23T17:57:08.593Z,6.33
2022-08-23T18:02:13.617Z,6.80
2022-08-23T18:07:18.707Z,7.37
2022-08-23T18:12:26.311Z,6.97
2022-08-23T18:17:31.323Z,7.20
2022-08-23T18:22:37.357Z,7.53
2022-08-23T18:27:58.468Z,7.47
2022-08-23T18:33:04.637Z,7.80
2022-08-23T18:38:13.109Z,6.43
2022-08-23T18:43:23.433Z,6.60
2022-08-23T18:48:30.567Z,6.57
2022-08-23T18:53:35.508Z,6.67
2022-08-23T18:58:43.316Z,6.80
2022-08-23T19:03:48.303Z,6.60
2022-08-23T19:08:56.132Z,6.30
2022-08-23T19:14:04.220Z,6.47
2022-08-23T19:19:12.253Z,6.40
2022-08-23T19:24:18.590Z,7.17
2022-08-23T19:29:26.292Z,6.77
2022-08-23T19:34:31.542Z,7.13
2022-08-23T19:39:36.514Z,7.50
2022-08-23T19:44:44.069Z,7.23
2022-08-23T19:49:51.309Z,7.80
2022-08-23T19:55:05.126Z,7.67
2022-08-23T20:00:19.662Z,6.97
2022-08-23T20:05:24.876Z,7.37
2022-08-23T20:10:30.740Z,7.57
2022-08-23T20:15:38.397Z,8.10
2022-08-23T20:20:44.524Z,8.43
2022-08-23T20:25:49.572Z,7.10
2022-08-23T20:30:57.482Z,7.17
2022-08-23T20:36:05.587Z,7.60
2022-08-23T20:41:10.802Z,7.33
2022-08-23T20:46:25.279Z,7.53
2022-08-23T20:51:37.050Z,7.67
2022-08-23T20:56:42.219Z,9.30
2022-08-23T21:01:50.493Z,8.60
2022-08-23T21:06:55.870Z,9.03
2022-08-23T21:12:03.539Z,8.87
2022-08-23T21:17:11.036Z,8.37
2022-08-23T21:22:15.997Z,8.80
2022-08-23T21:27:21.029Z,8.90
2022-08-23T21:32:28.813Z,8.97
2022-08-23T21:37:35.424Z,10.27
2022-08-23T21:42:41.075Z,10.00
2022-08-23T21:47:48.994Z,9.17
2022-08-23T21:52:56.554Z,9.60
2022-08-23T21:58:01.920Z,8.93
2022-08-23T22:03:09.989Z,9.13
2022-08-23T22:08:17.027Z,10.10
2022-08-23T22:13:22.420Z,9.77
2022-08-23T22:18:31.129Z,9.07
2022-08-23T22:23:37.010Z,9.83
2022-08-23T22:28:44.887Z,9.20
2022-08-23T22:33:53.677Z,10.03
2022-08-23T22:38:59.234Z,9.13
2022-08-23T22:44:05.550Z,8.70
2022-08-23T22:49:13.246Z,7.13
2022-08-23T22:54:19.136Z,8.60
2022-08-23T22:59:32.382Z,8.07
2022-08-23T23:04:40.770Z,8.87
2022-08-23T23:09:45.704Z,9.10
2022-08-23T23:14:50.599Z,8.67
2022-08-23T23:20:10.544Z,9.10
2022-08-23T23:25:15.486Z,8.83
2022-08-23T23:30:20.470Z,8.90
2022-08-23T23:35:30.996Z,8.57
2022-08-23T23:40:37.112Z,9.07
2022-08-23T23:45:42.398Z,8.67
2022-08-23T23:50:50.030Z,8.17
2022-08-23T23:56:02.409Z,8.03
